sensor_id;sensor_type;location;lat;lon;timestamp;temperature;humidity
56256;DHT22;57229;51.432;-2.598;2024-02-15T00:02:14;12.70;99.90
56256;DHT22;57229;51.432;-2.598;2024-02-15T00:04:40;12.70;99.90
56256;DHT22;57229;51.432;-2.598;2024-02-15T00:07:06;12.70;99.90
56256;DHT22;57229;51.432;-2.598;2024-02-15T00:09:31;12.70;99.90
56256;DHT22;57229;51.432;-2.598;2024-02-15T00:11:57;12.70;99.90
56256;DHT22;57229;51.432;-2.598;2024-02-15T00:14:25;12.70;99.90
56256;DHT22;57229;51.432;-2.598;2024-02-15T00:16:51;12.70;99.90
56256;DHT22;57229;51.432;-2.598;2024-02-15T00:19:16;12.70;99.90
56256;DHT22;57229;51.432;-2.598;2024-02-15T00:21:46;12.70;99.90
56256;DHT22;57229;51.432;-2.598;2024-02-15T00:24:11;12.70;99.90
56256;DHT22;57229;51.432;-2.598;2024-02-15T00:26:37;12.80;99.90
56256;DHT22;57229;51.432;-2.598;2024-02-15T00:29:03;12.80;99.90
56256;DHT22;57229;51.432;-2.598;2024-02-15T00:31:29;12.80;99.90
56256;DHT22;57229;51.432;-2.598;2024-02-15T00:33:55;12.80;99.90
56256;DHT22;57229;51.432;-2.598;2024-02-15T00:36:20;12.70;99.90
56256;DHT22;57229;51.432;-2.598;2024-02-15T00:38:46;12.70;99.90
56256;DHT22;57229;51.432;-2.598;2024-02-15T00:41:12;12.70;99.90
56256;DHT22;57229;51.432;-2.598;2024-02-15T00:43:38;12.70;99.90
56256;DHT22;57229;51.432;-2.598;2024-02-15T00:46:03;12.80;99.90
56256;DHT22;57229;51.432;-2.598;2024-02-15T00:48:29;12.80;99.90
56256;DHT22;57229;51.432;-2.598;2024-02-15T00:50:56;12.70;99.90
56256;DHT22;57229;51.432;-2.598;2024-02-15T00:53:22;12.80;99.90
56256;DHT22;57229;51.432;-2.598;2024-02-15T00:55:47;12.80;99.90
56256;DHT22;57229;51.432;-2.598;2024-02-15T00:58:13;12.70;99.90
56256;DHT22;57229;51.432;-2.598;2024-02-15T01:00:38;12.70;99.90
56256;DHT22;57229;51.432;-2.598;2024-02-15T01:03:04;12.70;99.90
56256;DHT22;57229;51.432;-2.598;2024-02-15T01:05:30;12.70;99.90
56256;DHT22;57229;51.432;-2.598;2024-02-15T01:07:56;12.70;99.90
56256;DHT22;57229;51.432;-2.598;2024-02-15T01:10:22;12.70;99.90
56256;DHT22;57229;51.432;-2.598;2024-02-15T01:12:50;12.60;99.90
56256;DHT22;57229;51.432;-2.598;2024-02-15T01:15:15;12.70;99.90
56256;DHT22;57229;51.432;-2.598;2024-02-15T01:17:45;12.60;99.90
56256;DHT22;57229;51.432;-2.598;2024-02-15T01:20:11;12.70;99.90
56256;DHT22;57229;51.432;-2.598;2024-02-15T01:22:37;12.70;99.90
56256;DHT22;57229;51.432;-2.598;2024-02-15T01:25:02;12.60;99.90
56256;DHT22;57229;51.432;-2.598;2024-02-15T01:27:28;12.60;99.90
56256;DHT22;57229;51.432;-2.598;2024-02-15T01:29:58;12.60;99.90
56256;DHT22;57229;51.432;-2.598;2024-02-15T01:32:24;12.60;99.90
56256;DHT22;57229;51.432;-2.598;2024-02-15T01:34:51;12.70;99.90
56256;DHT22;57229;51.432;-2.598;2024-02-15T01:37:19;12.60;99.90
56256;DHT22;57229;51.432;-2.598;2024-02-15T01:39:45;12.70;99.90
56256;DHT22;57229;51.432;-2.598;2024-02-15T01:42:11;12.70;99.90
56256;DHT22;57229;51.432;-2.598;2024-02-15T01:44:40;12.70;99.90
56256;DHT22;57229;51.432;-2.598;2024-02-15T01:47:06;12.70;99.90
56256;DHT22;57229;51.432;-2.598;2024-02-15T01:49:32;12.70;99.90
56256;DHT22;57229;51.432;-2.598;2024-02-15T01:51:58;12.70;99.90
56256;DHT22;57229;51.432;-2.598;2024-02-15T01:54:26;12.70;99.90
56256;DHT22;57229;51.432;-2.598;2024-02-15T01:56:52;12.70;99.90
56256;DHT22;57229;51.432;-2.598;2024-02-15T01:59:19;12.70;99.90
56256;DHT22;57229;51.432;-2.598;2024-02-15T02:01:47;12.70;99.90
56256;DHT22;57229;51.432;-2.598;2024-02-15T02:04:13;12.70;99.90
56256;DHT22;57229;51.432;-2.598;2024-02-15T02:06:39;12.70;99.90
56256;DHT22;57229;51.432;-2.598;2024-02-15T02:09:06;12.70;99.90
56256;DHT22;57229;51.432;-2.598;2024-02-15T02:11:35;12.70;99.90
56256;DHT22;57229;51.432;-2.598;2024-02-15T02:14:00;12.70;99.90
56256;DHT22;57229;51.432;-2.598;2024-02-15T02:16:30;12.70;99.90
56256;DHT22;57229;51.432;-2.598;2024-02-15T02:19:03;12.70;99.90
56256;DHT22;57229;51.432;-2.598;2024-02-15T02:21:33;12.70;99.90
56256;DHT22;57229;51.432;-2.598;2024-02-15T02:24:03;12.70;99.90
56256;DHT22;57229;51.432;-2.598;2024-02-15T02:26:33;12.70;99.90
56256;DHT22;57229;51.432;-2.598;2024-02-15T02:29:00;12.70;99.90
56256;DHT22;57229;51.432;-2.598;2024-02-15T02:31:33;12.70;99.90
56256;DHT22;57229;51.432;-2.598;2024-02-15T02:33:58;12.70;99.90
56256;DHT22;57229;51.432;-2.598;2024-02-15T02:36:24;12.70;99.90
56256;DHT22;57229;51.432;-2.598;2024-02-15T02:38:52;12.70;99.90
56256;DHT22;57229;51.432;-2.598;2024-02-15T02:41:18;12.70;99.90
56256;DHT22;57229;51.432;-2.598;2024-02-15T02:43:47;12.70;99.90
56256;DHT22;57229;51.432;-2.598;2024-02-15T02:46:13;12.70;99.90
56256;DHT22;57229;51.432;-2.598;2024-02-15T02:48:39;12.80;99.90
56256;DHT22;57229;51.432;-2.598;2024-02-15T02:51:05;12.70;99.90
56256;DHT22;57229;51.432;-2.598;2024-02-15T02:53:31;12.80;99.90
56256;DHT22;57229;51.432;-2.598;2024-02-15T02:55:57;12.80;99.90
56256;DHT22;57229;51.432;-2.598;2024-02-15T02:58:23;12.80;99.90
56256;DHT22;57229;51.432;-2.598;2024-02-15T03:00:49;12.70;99.90
56256;DHT22;57229;51.432;-2.598;2024-02-15T03:03:15;12.70;99.90
56256;DHT22;57229;51.432;-2.598;2024-02-15T03:05:41;12.70;99.90
56256;DHT22;57229;51.432;-2.598;2024-02-15T03:08:09;12.70;99.90
56256;DHT22;57229;51.432;-2.598;2024-02-15T03:10:34;12.70;99.90
56256;DHT22;57229;51.432;-2.598;2024-02-15T03:13:00;12.80;99.90
56256;DHT22;57229;51.432;-2.598;2024-02-15T03:15:26;12.80;99.90
56256;DHT22;57229;51.432;-2.598;2024-02-15T03:17:51;12.80;99.90
56256;DHT22;57229;51.432;-2.598;2024-02-15T03:20:17;12.80;99.90
56256;DHT22;57229;51.432;-2.598;2024-02-15T03:22:57;12.90;99.90
56256;DHT22;57229;51.432;-2.598;2024-02-15T03:25:28;12.90;99.90
56256;DHT22;57229;51.432;-2.598;2024-02-15T03:27:58;12.90;99.90
56256;DHT22;57229;51.432;-2.598;2024-02-15T03:30:25;12.90;99.90
56256;DHT22;57229;51.432;-2.598;2024-02-15T03:32:52;12.90;99.90
56256;DHT22;57229;51.432;-2.598;2024-02-15T03:35:22;12.90;99.90
56256;DHT22;57229;51.432;-2.598;2024-02-15T03:37:48;12.90;99.90
56256;DHT22;57229;51.432;-2.598;2024-02-15T03:40:16;13.00;99.90
56256;DHT22;57229;51.432;-2.598;2024-02-15T03:42:42;13.00;99.90
56256;DHT22;57229;51.432;-2.598;2024-02-15T03:45:08;13.00;99.90
56256;DHT22;57229;51.432;-2.598;2024-02-15T03:47:35;13.00;99.90
56256;DHT22;57229;51.432;-2.598;2024-02-15T03:50:07;13.10;99.90
56256;DHT22;57229;51.432;-2.598;2024-02-15T03:52:35;13.20;99.90
56256;DHT22;57229;51.432;-2.598;2024-02-15T03:55:01;13.20;99.90
56256;DHT22;57229;51.432;-2.598;2024-02-15T03:57:28;13.20;99.90
56256;DHT22;57229;51.432;-2.598;2024-02-15T03:59:54;13.20;99.90
56256;DHT22;57229;51.432;-2.598;2024-02-15T04:02:23;13.30;99.90
56256;DHT22;57229;51.432;-2.598;2024-02-15T04:04:49;13.30;99.90
56256;DHT22;57229;51.432;-2.598;2024-02-15T04:07:18;13.30;99.90
56256;DHT22;57229;51.432;-2.598;2024-02-15T04:09:44;13.30;99.90
56256;DHT22;57229;51.432;-2.598;2024-02-15T04:12:10;13.30;99.90
56256;DHT22;57229;51.432;-2.598;2024-02-15T04:14:37;13.30;99.90
56256;DHT22;57229;51.432;-2.598;2024-02-15T04:17:06;13.20;99.90
56256;DHT22;57229;51.432;-2.598;2024-02-15T04:19:32;13.20;99.90
56256;DHT22;57229;51.432;-2.598;2024-02-15T04:21:57;13.30;99.90
56256;DHT22;57229;51.432;-2.598;2024-02-15T04:24:24;13.20;99.90
56256;DHT22;57229;51.432;-2.598;2024-02-15T04:26:51;13.30;99.90
56256;DHT22;57229;51.432;-2.598;2024-02-15T04:29:17;13.30;99.90
56256;DHT22;57229;51.432;-2.598;2024-02-15T04:31:45;13.20;99.90
56256;DHT22;57229;51.432;-2.598;2024-02-15T04:34:15;13.20;99.90
56256;DHT22;57229;51.432;-2.598;2024-02-15T04:36:40;13.20;99.90
56256;DHT22;57229;51.432;-2.598;2024-02-15T04:39:06;13.30;99.90
56256;DHT22;57229;51.432;-2.598;2024-02-15T04:41:32;13.30;99.90
56256;DHT22;57229;51.432;-2.598;2024-02-15T04:43:57;13.30;99.90
56256;DHT22;57229;51.432;-2.598;2024-02-15T04:46:23;13.30;99.90
56256;DHT22;57229;51.432;-2.598;2024-02-15T04:48:50;13.40;99.90
56256;DHT22;57229;51.432;-2.598;2024-02-15T04:51:16;13.30;99.90
56256;DHT22;57229;51.432;-2.598;2024-02-15T04:53:42;13.30;99.90
56256;DHT22;57229;51.432;-2.598;2024-02-15T04:56:08;13.30;99.90
56256;DHT22;57229;51.432;-2.598;2024-02-15T04:58:40;13.30;99.90
56256;DHT22;57229;51.432;-2.598;2024-02-15T05:01:16;13.30;99.90
56256;DHT22;57229;51.432;-2.598;2024-02-15T05:03:43;13.30;99.90
56256;DHT22;57229;51.432;-2.598;2024-02-15T05:06:08;13.40;99.90
56256;DHT22;57229;51.432;-2.598;2024-02-15T05:08:35;13.40;99.90
56256;DHT22;57229;51.432;-2.598;2024-02-15T05:11:11;13.40;99.90
56256;DHT22;57229;51.432;-2.598;2024-02-15T05:13:44;13.50;99.90
56256;DHT22;57229;51.432;-2.598;2024-02-15T05:16:10;13.40;99.90
56256;DHT22;57229;51.432;-2.598;2024-02-15T05:18:36;13.50;99.90
56256;DHT22;57229;51.432;-2.598;2024-02-15T05:21:03;13.40;99.90
56256;DHT22;57229;51.432;-2.598;2024-02-15T05:23:29;13.40;99.90
56256;DHT22;57229;51.432;-2.598;2024-02-15T05:25:55;13.40;99.90
56256;DHT22;57229;51.432;-2.598;2024-02-15T05:28:22;13.50;99.90
56256;DHT22;57229;51.432;-2.598;2024-02-15T05:33:38;13.40;99.90
56256;DHT22;57229;51.432;-2.598;2024-02-15T05:36:12;13.50;99.90
56256;DHT22;57229;51.432;-2.598;2024-02-15T05:38:39;13.50;99.90
56256;DHT22;57229;51.432;-2.598;2024-02-15T05:41:05;13.50;99.90
56256;DHT22;57229;51.432;-2.598;2024-02-15T05:43:33;13.50;99.90
56256;DHT22;57229;51.432;-2.598;2024-02-15T05:45:58;13.50;99.90
56256;DHT22;57229;51.432;-2.598;2024-02-15T05:48:26;13.50;99.90
56256;DHT22;57229;51.432;-2.598;2024-02-15T05:50:51;13.50;99.90
56256;DHT22;57229;51.432;-2.598;2024-02-15T05:53:19;13.50;99.90
56256;DHT22;57229;51.432;-2.598;2024-02-15T05:55:45;13.50;99.90
56256;DHT22;57229;51.432;-2.598;2024-02-15T05:58:11;13.60;99.90
56256;DHT22;57229;51.432;-2.598;2024-02-15T06:00:39;13.50;99.90
56256;DHT22;57229;51.432;-2.598;2024-02-15T06:03:06;13.60;99.90
56256;DHT22;57229;51.432;-2.598;2024-02-15T06:05:32;13.50;99.90
56256;DHT22;57229;51.432;-2.598;2024-02-15T06:08:00;13.50;99.90
56256;DHT22;57229;51.432;-2.598;2024-02-15T06:10:26;13.50;99.90
56256;DHT22;57229;51.432;-2.598;2024-02-15T06:12:51;13.50;99.90
56256;DHT22;57229;51.432;-2.598;2024-02-15T06:15:17;13.50;99.90
56256;DHT22;57229;51.432;-2.598;2024-02-15T06:17:43;13.50;99.90
56256;DHT22;57229;51.432;-2.598;2024-02-15T06:20:13;13.30;99.90
56256;DHT22;57229;51.432;-2.598;2024-02-15T06:22:39;13.50;99.90
56256;DHT22;57229;51.432;-2.598;2024-02-15T06:25:05;13.50;99.90
56256;DHT22;57229;51.432;-2.598;2024-02-15T06:27:31;13.50;99.90
56256;DHT22;57229;51.432;-2.598;2024-02-15T06:29:58;13.50;99.90
56256;DHT22;57229;51.432;-2.598;2024-02-15T06:32:42;13.50;99.90
56256;DHT22;57229;51.432;-2.598;2024-02-15T06:35:27;13.50;99.90
56256;DHT22;57229;51.432;-2.598;2024-02-15T06:38:11;13.40;99.90
56256;DHT22;57229;51.432;-2.598;2024-02-15T06:40:55;13.50;99.90
56256;DHT22;57229;51.432;-2.598;2024-02-15T06:43:21;13.40;99.90
56256;DHT22;57229;51.432;-2.598;2024-02-15T06:45:46;13.40;99.90
56256;DHT22;57229;51.432;-2.598;2024-02-15T06:48:13;13.40;99.90
56256;DHT22;57229;51.432;-2.598;2024-02-15T06:50:38;13.40;99.90
56256;DHT22;57229;51.432;-2.598;2024-02-15T06:53:05;13.30;99.90
56256;DHT22;57229;51.432;-2.598;2024-02-15T06:55:30;13.30;99.90
56256;DHT22;57229;51.432;-2.598;2024-02-15T06:57:56;13.20;99.90
56256;DHT22;57229;51.432;-2.598;2024-02-15T07:00:22;13.20;99.90
56256;DHT22;57229;51.432;-2.598;2024-02-15T07:02:48;13.20;99.90
56256;DHT22;57229;51.432;-2.598;2024-02-15T07:05:14;13.10;99.90
56256;DHT22;57229;51.432;-2.598;2024-02-15T07:07:42;13.10;99.90
56256;DHT22;57229;51.432;-2.598;2024-02-15T07:10:09;13.10;99.90
56256;DHT22;57229;51.432;-2.598;2024-02-15T07:12:36;13.00;99.90
56256;DHT22;57229;51.432;-2.598;2024-02-15T07:15:01;12.90;99.90
56256;DHT22;57229;51.432;-2.598;2024-02-15T07:17:29;12.80;99.90
56256;DHT22;57229;51.432;-2.598;2024-02-15T07:19:54;12.80;99.90
56256;DHT22;57229;51.432;-2.598;2024-02-15T07:22:20;12.90;99.90
56256;DHT22;57229;51.432;-2.598;2024-02-15T07:24:47;12.70;99.90
56256;DHT22;57229;51.432;-2.598;2024-02-15T07:27:13;12.80;99.90
56256;DHT22;57229;51.432;-2.598;2024-02-15T07:29:38;12.70;99.90
56256;DHT22;57229;51.432;-2.598;2024-02-15T07:32:07;12.80;99.90
56256;DHT22;57229;51.432;-2.598;2024-02-15T07:34:33;12.70;99.90
56256;DHT22;57229;51.432;-2.598;2024-02-15T07:36:59;12.70;99.90
56256;DHT22;57229;51.432;-2.598;2024-02-15T07:39:25;12.70;99.90
56256;DHT22;57229;51.432;-2.598;2024-02-15T07:41:54;12.60;99.90
56256;DHT22;57229;51.432;-2.598;2024-02-15T07:44:25;12.60;99.90
56256;DHT22;57229;51.432;-2.598;2024-02-15T07:46:55;12.60;99.90
56256;DHT22;57229;51.432;-2.598;2024-02-15T07:49:21;12.60;99.90
56256;DHT22;57229;51.432;-2.598;2024-02-15T07:51:50;12.60;99.90
56256;DHT22;57229;51.432;-2.598;2024-02-15T07:54:21;12.60;99.90
56256;DHT22;57229;51.432;-2.598;2024-02-15T07:56:47;12.60;99.90
56256;DHT22;57229;51.432;-2.598;2024-02-15T07:59:17;12.70;99.90
56256;DHT22;57229;51.432;-2.598;2024-02-15T08:01:43;12.70;99.90
56256;DHT22;57229;51.432;-2.598;2024-02-15T08:04:12;12.60;99.90
56256;DHT22;57229;51.432;-2.598;2024-02-15T08:06:38;12.80;99.90
56256;DHT22;57229;51.432;-2.598;2024-02-15T08:09:04;13.90;99.90
56256;DHT22;57229;51.432;-2.598;2024-02-15T08:11:41;13.70;99.90
56256;DHT22;57229;51.432;-2.598;2024-02-15T08:14:07;12.90;99.90
56256;DHT22;57229;51.432;-2.598;2024-02-15T08:16:36;13.00;99.90
56256;DHT22;57229;51.432;-2.598;2024-02-15T08:19:03;13.00;99.90
56256;DHT22;57229;51.432;-2.598;2024-02-15T08:21:31;13.10;99.90
56256;DHT22;57229;51.432;-2.598;2024-02-15T08:24:03;13.10;99.90
56256;DHT22;57229;51.432;-2.598;2024-02-15T08:26:40;13.20;99.90
56256;DHT22;57229;51.432;-2.598;2024-02-15T08:29:07;13.20;99.90
56256;DHT22;57229;51.432;-2.598;2024-02-15T08:31:33;13.20;99.90
56256;DHT22;57229;51.432;-2.598;2024-02-15T08:34:02;13.10;99.90
56256;DHT22;57229;51.432;-2.598;2024-02-15T08:36:31;13.20;99.90
56256;DHT22;57229;51.432;-2.598;2024-02-15T08:38:57;13.30;99.90
56256;DHT22;57229;51.432;-2.598;2024-02-15T08:41:22;13.30;99.90
56256;DHT22;57229;51.432;-2.598;2024-02-15T08:43:52;13.30;99.90
56256;DHT22;57229;51.432;-2.598;2024-02-15T08:46:18;13.40;99.90
56256;DHT22;57229;51.432;-2.598;2024-02-15T08:48:45;13.40;99.90
56256;DHT22;57229;51.432;-2.598;2024-02-15T08:51:15;13.30;99.90
56256;DHT22;57229;51.432;-2.598;2024-02-15T08:53:43;13.40;99.90
56256;DHT22;57229;51.432;-2.598;2024-02-15T08:56:09;12.20;99.90
56256;DHT22;57229;51.432;-2.598;2024-02-15T08:58:35;13.40;99.90
56256;DHT22;57229;51.432;-2.598;2024-02-15T09:01:01;13.40;99.90
56256;DHT22;57229;51.432;-2.598;2024-02-15T09:03:28;13.50;99.90
56256;DHT22;57229;51.432;-2.598;2024-02-15T09:05:53;13.50;99.90
56256;DHT22;57229;51.432;-2.598;2024-02-15T09:08:19;13.60;99.90
56256;DHT22;57229;51.432;-2.598;2024-02-15T09:10:47;13.60;99.90
56256;DHT22;57229;51.432;-2.598;2024-02-15T09:13:13;13.60;99.90
56256;DHT22;57229;51.432;-2.598;2024-02-15T09:15:40;13.80;99.90
56256;DHT22;57229;51.432;-2.598;2024-02-15T09:18:07;13.80;99.90
56256;DHT22;57229;51.432;-2.598;2024-02-15T09:20:35;13.90;99.90
56256;DHT22;57229;51.432;-2.598;2024-02-15T09:23:03;14.10;99.90
56256;DHT22;57229;51.432;-2.598;2024-02-15T09:25:34;14.20;99.90
56256;DHT22;57229;51.432;-2.598;2024-02-15T09:28:02;14.20;99.90
56256;DHT22;57229;51.432;-2.598;2024-02-15T09:30:28;14.30;99.90
56256;DHT22;57229;51.432;-2.598;2024-02-15T09:32:54;14.40;99.90
56256;DHT22;57229;51.432;-2.598;2024-02-15T09:35:20;14.50;99.90
56256;DHT22;57229;51.432;-2.598;2024-02-15T09:37:48;14.50;99.90
56256;DHT22;57229;51.432;-2.598;2024-02-15T09:40:15;14.50;99.90
56256;DHT22;57229;51.432;-2.598;2024-02-15T09:42:42;14.30;99.90
56256;DHT22;57229;51.432;-2.598;2024-02-15T09:45:11;14.30;99.90
56256;DHT22;57229;51.432;-2.598;2024-02-15T09:47:42;14.20;99.90
56256;DHT22;57229;51.432;-2.598;2024-02-15T09:50:15;14.30;99.90
56256;DHT22;57229;51.432;-2.598;2024-02-15T09:52:45;14.70;99.90
56256;DHT22;57229;51.432;-2.598;2024-02-15T09:55:11;14.10;99.90
56256;DHT22;57229;51.432;-2.598;2024-02-15T09:57:43;14.10;99.90
56256;DHT22;57229;51.432;-2.598;2024-02-15T10:00:10;14.20;99.90
56256;DHT22;57229;51.432;-2.598;2024-02-15T10:02:45;14.30;99.90
56256;DHT22;57229;51.432;-2.598;2024-02-15T10:05:11;14.30;99.90
56256;DHT22;57229;51.432;-2.598;2024-02-15T10:07:41;14.50;99.90
56256;DHT22;57229;51.432;-2.598;2024-02-15T10:10:23;14.60;99.90
56256;DHT22;57229;51.432;-2.598;2024-02-15T10:12:52;14.80;99.90
56256;DHT22;57229;51.432;-2.598;2024-02-15T10:18:02;15.50;99.90
56256;DHT22;57229;51.432;-2.598;2024-02-15T10:20:28;15.80;99.90
56256;DHT22;57229;51.432;-2.598;2024-02-15T10:25:29;16.90;99.90
56256;DHT22;57229;51.432;-2.598;2024-02-15T10:31:37;18.00;99.90
56256;DHT22;57229;51.432;-2.598;2024-02-15T10:34:05;18.70;99.90
56256;DHT22;57229;51.432;-2.598;2024-02-15T10:36:31;19.20;99.90
56256;DHT22;57229;51.432;-2.598;2024-02-15T10:39:13;20.00;99.90
56256;DHT22;57229;51.432;-2.598;2024-02-15T10:41:52;21.00;99.90
56256;DHT22;57229;51.432;-2.598;2024-02-15T10:44:19;21.50;99.80
56256;DHT22;57229;51.432;-2.598;2024-02-15T10:46:46;21.60;99.10
56256;DHT22;57229;51.432;-2.598;2024-02-15T10:49:22;21.70;98.30
56256;DHT22;57229;51.432;-2.598;2024-02-15T10:51:51;21.50;98.80
56256;DHT22;57229;51.432;-2.598;2024-02-15T10:54:26;21.60;98.70
56256;DHT22;57229;51.432;-2.598;2024-02-15T10:57:03;22.10;99.00
56256;DHT22;57229;51.432;-2.598;2024-02-15T10:59:32;22.80;98.00
56256;DHT22;57229;51.432;-2.598;2024-02-15T11:02:00;23.40;96.30
56256;DHT22;57229;51.432;-2.598;2024-02-15T11:04:27;24.10;96.10
56256;DHT22;57229;51.432;-2.598;2024-02-15T11:06:58;24.80;94.80
56256;DHT22;57229;51.432;-2.598;2024-02-15T11:09:25;25.50;94.40
56256;DHT22;57229;51.432;-2.598;2024-02-15T11:11:54;26.30;92.90
56256;DHT22;57229;51.432;-2.598;2024-02-15T11:14:30;27.10;90.90
56256;DHT22;57229;51.432;-2.598;2024-02-15T11:17:06;27.60;90.20
56256;DHT22;57229;51.432;-2.598;2024-02-15T11:21:58;27.60;88.40
56256;DHT22;57229;51.432;-2.598;2024-02-15T11:24:31;27.90;87.70
56256;DHT22;57229;51.432;-2.598;2024-02-15T11:27:06;26.90;85.00
56256;DHT22;57229;51.432;-2.598;2024-02-15T11:38:03;23.60;91.70
56256;DHT22;57229;51.432;-2.598;2024-02-15T11:43:08;21.70;95.00
56256;DHT22;57229;51.432;-2.598;2024-02-15T11:45:35;21.50;95.10
56256;DHT22;57229;51.432;-2.598;2024-02-15T11:48:11;22.00;96.00
56256;DHT22;57229;51.432;-2.598;2024-02-15T11:50:40;22.70;94.10
56256;DHT22;57229;51.432;-2.598;2024-02-15T11:53:07;22.60;93.50
56256;DHT22;57229;51.432;-2.598;2024-02-15T11:55:40;22.90;94.30
56256;DHT22;57229;51.432;-2.598;2024-02-15T11:58:07;23.10;93.50
56256;DHT22;57229;51.432;-2.598;2024-02-15T12:00:33;22.90;93.30
56256;DHT22;57229;51.432;-2.598;2024-02-15T12:03:18;22.30;94.00
56256;DHT22;57229;51.432;-2.598;2024-02-15T12:06:03;20.90;95.80
56256;DHT22;57229;51.432;-2.598;2024-02-15T12:08:48;20.20;97.50
56256;DHT22;57229;51.432;-2.598;2024-02-15T12:11:33;19.60;98.90
56256;DHT22;57229;51.432;-2.598;2024-02-15T12:14:18;19.50;99.90
56256;DHT22;57229;51.432;-2.598;2024-02-15T12:17:12;19.10;99.40
56256;DHT22;57229;51.432;-2.598;2024-02-15T12:20:01;18.90;99.90
56256;DHT22;57229;51.432;-2.598;2024-02-15T12:22:46;18.70;99.90
56256;DHT22;57229;51.432;-2.598;2024-02-15T12:25:16;18.80;99.90
56256;DHT22;57229;51.432;-2.598;2024-02-15T12:27:42;18.90;99.90
56256;DHT22;57229;51.432;-2.598;2024-02-15T12:30:18;18.60;99.90
56256;DHT22;57229;51.432;-2.598;2024-02-15T12:32:48;18.20;99.90
56256;DHT22;57229;51.432;-2.598;2024-02-15T12:35:21;18.20;99.90
56256;DHT22;57229;51.432;-2.598;2024-02-15T12:38:08;18.80;99.90
56256;DHT22;57229;51.432;-2.598;2024-02-15T12:40:36;19.10;99.90
56256;DHT22;57229;51.432;-2.598;2024-02-15T12:43:04;19.40;99.90
56256;DHT22;57229;51.432;-2.598;2024-02-15T12:45:32;19.40;99.90
56256;DHT22;57229;51.432;-2.598;2024-02-15T12:47:58;19.60;99.90
56256;DHT22;57229;51.432;-2.598;2024-02-15T12:50:27;19.80;99.90
56256;DHT22;57229;51.432;-2.598;2024-02-15T12:52:53;20.30;99.90
56256;DHT22;57229;51.432;-2.598;2024-02-15T12:55:22;20.70;99.40
56256;DHT22;57229;51.432;-2.598;2024-02-15T12:57:52;20.80;98.30
56256;DHT22;57229;51.432;-2.598;2024-02-15T13:00:20;20.90;98.60
56256;DHT22;57229;51.432;-2.598;2024-02-15T13:02:50;21.30;98.90
56256;DHT22;57229;51.432;-2.598;2024-02-15T13:05:17;21.50;96.90
56256;DHT22;57229;51.432;-2.598;2024-02-15T13:07:45;21.90;96.70
56256;DHT22;57229;51.432;-2.598;2024-02-15T13:10:11;22.70;95.40
56256;DHT22;57229;51.432;-2.598;2024-02-15T13:12:37;23.10;94.50
56256;DHT22;57229;51.432;-2.598;2024-02-15T13:15:04;23.40;94.50
56256;DHT22;57229;51.432;-2.598;2024-02-15T13:17:38;24.20;94.90
56256;DHT22;57229;51.432;-2.598;2024-02-15T13:20:04;24.90;93.60
56256;DHT22;57229;51.432;-2.598;2024-02-15T13:22:31;24.60;93.20
56256;DHT22;57229;51.432;-2.598;2024-02-15T13:24:58;24.20;93.10
56256;DHT22;57229;51.432;-2.598;2024-02-15T13:27:24;24.20;93.30
56256;DHT22;57229;51.432;-2.598;2024-02-15T13:29:50;24.10;92.80
56256;DHT22;57229;51.432;-2.598;2024-02-15T13:32:16;24.40;93.10
56256;DHT22;57229;51.432;-2.598;2024-02-15T13:34:45;24.40;92.20
56256;DHT22;57229;51.432;-2.598;2024-02-15T13:37:11;24.00;93.00
56256;DHT22;57229;51.432;-2.598;2024-02-15T13:39:39;23.60;93.60
56256;DHT22;57229;51.432;-2.598;2024-02-15T13:42:08;22.50;94.20
56256;DHT22;57229;51.432;-2.598;2024-02-15T13:44:34;21.50;95.80
56256;DHT22;57229;51.432;-2.598;2024-02-15T13:46:59;21.10;96.80
56256;DHT22;57229;51.432;-2.598;2024-02-15T13:49:25;20.70;97.20
56256;DHT22;57229;51.432;-2.598;2024-02-15T13:52:01;20.10;97.90
56256;DHT22;57229;51.432;-2.598;2024-02-15T13:54:29;19.30;99.30
56256;DHT22;57229;51.432;-2.598;2024-02-15T13:56:55;18.70;99.90
56256;DHT22;57229;51.432;-2.598;2024-02-15T13:59:22;18.40;99.90
56256;DHT22;57229;51.432;-2.598;2024-02-15T14:01:49;18.10;99.90
56256;DHT22;57229;51.432;-2.598;2024-02-15T14:04:15;17.80;99.90
56256;DHT22;57229;51.432;-2.598;2024-02-15T14:06:42;17.50;99.90
56256;DHT22;57229;51.432;-2.598;2024-02-15T14:09:10;17.40;99.90
56256;DHT22;57229;51.432;-2.598;2024-02-15T14:11:37;17.50;99.90
56256;DHT22;57229;51.432;-2.598;2024-02-15T14:14:06;17.60;99.90
56256;DHT22;57229;51.432;-2.598;2024-02-15T14:16:32;17.70;99.90
56256;DHT22;57229;51.432;-2.598;2024-02-15T14:18:58;17.60;99.90
56256;DHT22;57229;51.432;-2.598;2024-02-15T14:21:25;17.50;99.90
56256;DHT22;57229;51.432;-2.598;2024-02-15T14:23:50;17.40;99.90
56256;DHT22;57229;51.432;-2.598;2024-02-15T14:26:16;17.30;99.90
56256;DHT22;57229;51.432;-2.598;2024-02-15T14:28:43;17.20;99.90
56256;DHT22;57229;51.432;-2.598;2024-02-15T14:31:11;17.00;99.90
56256;DHT22;57229;51.432;-2.598;2024-02-15T14:33:55;16.90;99.90
56256;DHT22;57229;51.432;-2.598;2024-02-15T14:36:21;16.70;99.90
56256;DHT22;57229;51.432;-2.598;2024-02-15T14:38:47;16.60;99.90
56256;DHT22;57229;51.432;-2.598;2024-02-15T14:41:12;16.30;99.90
56256;DHT22;57229;51.432;-2.598;2024-02-15T14:43:39;16.20;99.90
56256;DHT22;57229;51.432;-2.598;2024-02-15T14:46:05;16.10;99.90
56256;DHT22;57229;51.432;-2.598;2024-02-15T14:48:33;16.00;99.90
56256;DHT22;57229;51.432;-2.598;2024-02-15T14:50:59;15.40;99.90
56256;DHT22;57229;51.432;-2.598;2024-02-15T14:53:26;15.90;99.90
56256;DHT22;57229;51.432;-2.598;2024-02-15T14:55:53;15.80;99.90
56256;DHT22;57229;51.432;-2.598;2024-02-15T14:58:20;16.90;99.90
56256;DHT22;57229;51.432;-2.598;2024-02-15T15:00:46;15.80;99.90
56256;DHT22;57229;51.432;-2.598;2024-02-15T15:03:13;15.80;99.90
56256;DHT22;57229;51.432;-2.598;2024-02-15T15:05:39;15.80;99.90
56256;DHT22;57229;51.432;-2.598;2024-02-15T15:08:24;15.80;99.90
56256;DHT22;57229;51.432;-2.598;2024-02-15T15:11:09;15.70;99.90
56256;DHT22;57229;51.432;-2.598;2024-02-15T15:13:54;15.70;99.90
56256;DHT22;57229;51.432;-2.598;2024-02-15T15:16:19;15.60;99.90
56256;DHT22;57229;51.432;-2.598;2024-02-15T15:18:49;15.60;99.90
56256;DHT22;57229;51.432;-2.598;2024-02-15T15:21:18;15.60;99.90
56256;DHT22;57229;51.432;-2.598;2024-02-15T15:23:44;15.50;99.90
56256;DHT22;57229;51.432;-2.598;2024-02-15T15:26:10;15.40;99.90
56256;DHT22;57229;51.432;-2.598;2024-02-15T15:28:38;15.40;99.90
56256;DHT22;57229;51.432;-2.598;2024-02-15T15:31:04;15.40;99.90
56256;DHT22;57229;51.432;-2.598;2024-02-15T15:33:30;15.30;99.90
56256;DHT22;57229;51.432;-2.598;2024-02-15T15:35:59;15.30;99.90
56256;DHT22;57229;51.432;-2.598;2024-02-15T15:38:25;15.20;99.90
56256;DHT22;57229;51.432;-2.598;2024-02-15T15:40:52;15.10;99.90
56256;DHT22;57229;51.432;-2.598;2024-02-15T15:43:18;15.10;99.90
56256;DHT22;57229;51.432;-2.598;2024-02-15T15:45:45;15.00;99.90
56256;DHT22;57229;51.432;-2.598;2024-02-15T15:48:11;15.00;99.90